Shelby — WCV6157 — position and weather

sailwx.info

Track history (hours):
 
Tides and Currents Weather Stations Pressure Air Temp Water Temp Dewpoint Dewpoint Depression Visibility Wind Speed Wind Dir Waves Ship Positions

Shelby

Owner: WEEKS MARINE, INC., CRANFORD, NJ. More information available from US FCC via Universal Licensing System and Coast Guard Vessel Documentation Center.

Last reported at 2017-Mar-25 19:29 UTC. Time now 2017-Mar-26 20:51 UTC.
Position N 34°24' W 076°41'.

Length 22 m; draft 3.1 m.

Type: Tug. MMSI: 366902344.

Date/timePositionNaut miles runAvg speedWind from/ knotsBaromVisibWave heightAir tempDewpointWater temp
2017-Mar-25 19:29N 34°24' W 076°41'152 8.0
2017-Mar-25 00:24N 36°52' W 075°56'6910.0
2017-Mar-24 17:28N 38°00' W 076°13'5210.1
2017-Mar-24 12:15N 38°52' W 076°24'710.2
2017-Mar-24 11:33N 38°59' W 076°23'23 9.4
2017-Mar-24 09:06N 39°20' W 076°11'6 9.8
2017-Mar-24 08:30N 39°23' W 076°05'9 9.6
2017-Mar-24 07:34N 39°30' W 075°56'8 8.3
2017-Mar-24 06:33N 39°32' W 075°46'9 9.5
2017-Mar-24 05:33N 39°34' W 075°34'1111.0
2017-Mar-24 04:34N 39°44' W 075°30'1110.6
2017-Mar-24 03:34N 39°51' W 075°19'9 8.9
2017-Mar-24 02:33N 39°54' W 075°08'2 1.9
2017-Mar-24 01:33N 39°56' W 075°08'0 0.0
2017-Mar-24 00:33N 39°56' W 075°08'0 0.0
2017-Mar-23 23:33N 39°56' W 075°08'7 6.9
2017-Mar-23 22:33N 39°51' W 075°15'0 0.0
2017-Mar-23 21:33N 39°51' W 075°15'5 5.2
2017-Mar-23 20:34N 39°50' W 075°22'1 0.7
2017-Mar-23 19:34N 39°49' W 075°22'0 0.1
2017-Mar-23 18:33N 39°50' W 075°22'6 5.5
2017-Mar-23 17:34N 39°51' W 075°15'8 8.1
2017-Mar-23 16:33N 39°57' W 075°08'0 0.0
2017-Mar-23 15:34N 39°57' W 075°08'0 0.0
2017-Mar-23 14:34N 39°57' W 075°08'0 0.0
2017-Mar-23 13:33N 39°57' W 075°08'0 0.0
2017-Mar-23 12:33N 39°57' W 075°08'0 0.0
2017-Mar-23 11:34N 39°57' W 075°08'0 0.0
2017-Mar-23 10:33N 39°57' W 075°08'0 0.0
2017-Mar-23 09:34N 39°57' W 075°08'0 0.0
2017-Mar-23 08:33N 39°57' W 075°08'0 0.0
2017-Mar-23 07:34N 39°57' W 075°08'0 0.0
2017-Mar-23 06:33N 39°57' W 075°08'0 0.0
2017-Mar-23 05:33N 39°57' W 075°08'0 0.0
2017-Mar-23 04:34N 39°57' W 075°08'0 0.0
2017-Mar-23 03:33N 39°57' W 075°08'0 0.0
2017-Mar-23 02:34N 39°57' W 075°08'0 0.0
2017-Mar-23 01:34N 39°57' W 075°08'0 0.0
2017-Mar-23 00:33N 39°57' W 075°08'0 0.0
2017-Mar-22 23:33N 39°57' W 075°08'0 0.0
2017-Mar-22 22:33N 39°57' W 075°08'0 0.0
2017-Mar-22 21:34N 39°57' W 075°08'0 0.0
2017-Mar-22 20:33N 39°57' W 075°08'0 0.0
2017-Mar-22 19:34N 39°57' W 075°08'0 0.0
2017-Mar-22 18:34N 39°57' W 075°08'0 0.0
2017-Mar-22 17:33N 39°57' W 075°08'0 0.0
2017-Mar-22 16:33N 39°57' W 075°08'0 0.0
2017-Mar-22 15:34N 39°57' W 075°08'0 0.0
2017-Mar-22 14:34N 39°57' W 075°08'0 0.0
2017-Mar-22 13:34N 39°57' W 075°08'0 0.0
2017-Mar-22 12:33N 39°57' W 075°08'0 0.0
2017-Mar-22 11:33N 39°57' W 075°08'0 0.0
2017-Mar-22 10:34N 39°57' W 075°08'0 0.0
2017-Mar-22 09:33N 39°57' W 075°08'0 0.0
2017-Mar-22 08:34N 39°57' W 075°08'0 0.0
2017-Mar-22 07:34N 39°57' W 075°08'0 0.0
2017-Mar-22 06:33N 39°57' W 075°08'0 0.0
2017-Mar-22 05:33N 39°57' W 075°08'0 0.0
2017-Mar-22 04:33N 39°57' W 075°08'0 0.0
2017-Mar-22 03:34N 39°57' W 075°08'0 0.0
2017-Mar-22 02:33N 39°57' W 075°08'0 0.0
2017-Mar-22 01:33N 39°57' W 075°08'0 0.0
2017-Mar-22 00:33N 39°57' W 075°08'0 0.0
2017-Mar-21 23:33N 39°57' W 075°08'0 0.0
2017-Mar-21 22:34N 39°57' W 075°08'0 0.0
2017-Mar-21 21:33N 39°57' W 075°08'0 0.0
2017-Mar-21 20:33N 39°57' W 075°08'0 0.0
2017-Mar-21 19:34N 39°57' W 075°08'  
Track history (hours):
 
Tides and Currents Weather Stations Pressure Air Temp Water Temp Dewpoint Dewpoint Depression Visibility Wind Speed Wind Dir Waves Ship Positions

Shelby

Owner: WEEKS MARINE, INC., CRANFORD, NJ. More information available from US FCC via Universal Licensing System and Coast Guard Vessel Documentation Center.

Last reported at 2017-Mar-25 19:29 UTC. Time now 2017-Mar-26 20:51 UTC.
Position N 34°24' W 076°41'.

Length 22 m; draft 3.1 m.

Type: Tug. MMSI: 366902344.

Date/timePositionNaut miles runAvg speedWind from/ knotsBaromVisibWave heightAir tempDewpointWater temp
2017-Mar-25 19:29N 34°24' W 076°41'152 8.0
2017-Mar-25 00:24N 36°52' W 075°56'6910.0
2017-Mar-24 17:28N 38°00' W 076°13'5210.1
2017-Mar-24 12:15N 38°52' W 076°24'710.2
2017-Mar-24 11:33N 38°59' W 076°23'23 9.4
2017-Mar-24 09:06N 39°20' W 076°11'6 9.8
2017-Mar-24 08:30N 39°23' W 076°05'9 9.6
2017-Mar-24 07:34N 39°30' W 075°56'8 8.3
2017-Mar-24 06:33N 39°32' W 075°46'9 9.5
2017-Mar-24 05:33N 39°34' W 075°34'1111.0
2017-Mar-24 04:34N 39°44' W 075°30'1110.6
2017-Mar-24 03:34N 39°51' W 075°19'9 8.9
2017-Mar-24 02:33N 39°54' W 075°08'2 1.9
2017-Mar-24 01:33N 39°56' W 075°08'0 0.0
2017-Mar-24 00:33N 39°56' W 075°08'0 0.0
2017-Mar-23 23:33N 39°56' W 075°08'7 6.9
2017-Mar-23 22:33N 39°51' W 075°15'0 0.0
2017-Mar-23 21:33N 39°51' W 075°15'5 5.2
2017-Mar-23 20:34N 39°50' W 075°22'1 0.7
2017-Mar-23 19:34N 39°49' W 075°22'0 0.1
2017-Mar-23 18:33N 39°50' W 075°22'6 5.5
2017-Mar-23 17:34N 39°51' W 075°15'8 8.1
2017-Mar-23 16:33N 39°57' W 075°08'0 0.0
2017-Mar-23 15:34N 39°57' W 075°08'0 0.0
2017-Mar-23 14:34N 39°57' W 075°08'0 0.0
2017-Mar-23 13:33N 39°57' W 075°08'0 0.0
2017-Mar-23 12:33N 39°57' W 075°08'0 0.0
2017-Mar-23 11:34N 39°57' W 075°08'0 0.0
2017-Mar-23 10:33N 39°57' W 075°08'0 0.0
2017-Mar-23 09:34N 39°57' W 075°08'0 0.0
2017-Mar-23 08:33N 39°57' W 075°08'0 0.0
2017-Mar-23 07:34N 39°57' W 075°08'0 0.0
2017-Mar-23 06:33N 39°57' W 075°08'0 0.0
2017-Mar-23 05:33N 39°57' W 075°08'0 0.0
2017-Mar-23 04:34N 39°57' W 075°08'0 0.0
2017-Mar-23 03:33N 39°57' W 075°08'0 0.0
2017-Mar-23 02:34N 39°57' W 075°08'0 0.0
2017-Mar-23 01:34N 39°57' W 075°08'0 0.0
2017-Mar-23 00:33N 39°57' W 075°08'0 0.0
2017-Mar-22 23:33N 39°57' W 075°08'0 0.0
2017-Mar-22 22:33N 39°57' W 075°08'0 0.0
2017-Mar-22 21:34N 39°57' W 075°08'0 0.0
2017-Mar-22 20:33N 39°57' W 075°08'0 0.0
2017-Mar-22 19:34N 39°57' W 075°08'0 0.0
2017-Mar-22 18:34N 39°57' W 075°08'0 0.0
2017-Mar-22 17:33N 39°57' W 075°08'0 0.0
2017-Mar-22 16:33N 39°57' W 075°08'0 0.0
2017-Mar-22 15:34N 39°57' W 075°08'0 0.0
2017-Mar-22 14:34N 39°57' W 075°08'0 0.0
2017-Mar-22 13:34N 39°57' W 075°08'0 0.0
2017-Mar-22 12:33N 39°57' W 075°08'0 0.0
2017-Mar-22 11:33N 39°57' W 075°08'0 0.0
2017-Mar-22 10:34N 39°57' W 075°08'0 0.0
2017-Mar-22 09:33N 39°57' W 075°08'0 0.0
2017-Mar-22 08:34N 39°57' W 075°08'0 0.0
2017-Mar-22 07:34N 39°57' W 075°08'0 0.0
2017-Mar-22 06:33N 39°57' W 075°08'0 0.0
2017-Mar-22 05:33N 39°57' W 075°08'0 0.0
2017-Mar-22 04:33N 39°57' W 075°08'0 0.0
2017-Mar-22 03:34N 39°57' W 075°08'0 0.0
2017-Mar-22 02:33N 39°57' W 075°08'0 0.0
2017-Mar-22 01:33N 39°57' W 075°08'0 0.0
2017-Mar-22 00:33N 39°57' W 075°08'0 0.0
2017-Mar-21 23:33N 39°57' W 075°08'0 0.0
2017-Mar-21 22:34N 39°57' W 075°08'0 0.0
2017-Mar-21 21:33N 39°57' W 075°08'0 0.0
2017-Mar-21 20:33N 39°57' W 075°08'0 0.0
2017-Mar-21 19:34N 39°57' W 075°08'  

Dump ship's entire track history